sensor_id;sensor_type;location;lat;lon;timestamp;P1;durP1;ratioP1;P2;durP2;ratioP2
7675;SDS011;3880;51.464;-2.566;2022-09-13T00:02:01;9.57;;;4.93;;
7675;SDS011;3880;51.464;-2.566;2022-09-13T00:04:28;9.60;;;4.77;;
7675;SDS011;3880;51.464;-2.566;2022-09-13T00:06:55;6.17;;;4.60;;
7675;SDS011;3880;51.464;-2.566;2022-09-13T00:09:23;8.30;;;4.97;;
7675;SDS011;3880;51.464;-2.566;2022-09-13T00:11:50;7.57;;;4.93;;
7675;SDS011;3880;51.464;-2.566;2022-09-13T00:14:17;6.27;;;4.27;;
7675;SDS011;3880;51.464;-2.566;2022-09-13T00:16:44;9.10;;;4.97;;
7675;SDS011;3880;51.464;-2.566;2022-09-13T00:19:11;5.77;;;4.57;;
7675;SDS011;3880;51.464;-2.566;2022-09-13T00:21:38;6.97;;;4.50;;
7675;SDS011;3880;51.464;-2.566;2022-09-13T00:24:05;6.13;;;4.10;;
7675;SDS011;3880;51.464;-2.566;2022-09-13T00:26:33;7.03;;;4.60;;
7675;SDS011;3880;51.464;-2.566;2022-09-13T00:29:00;7.60;;;4.43;;
7675;SDS011;3880;51.464;-2.566;2022-09-13T00:31:27;4.70;;;4.03;;
7675;SDS011;3880;51.464;-2.566;2022-09-13T00:33:55;7.93;;;4.93;;
7675;SDS011;3880;51.464;-2.566;2022-09-13T00:36:24;6.80;;;4.70;;
7675;SDS011;3880;51.464;-2.566;2022-09-13T00:38:51;5.20;;;4.60;;
7675;SDS011;3880;51.464;-2.566;2022-09-13T00:41:18;4.87;;;4.50;;
7675;SDS011;3880;51.464;-2.566;2022-09-13T00:43:49;6.93;;;6.23;;
7675;SDS011;3880;51.464;-2.566;2022-09-13T00:46:20;6.73;;;6.03;;
7675;SDS011;3880;51.464;-2.566;2022-09-13T00:48:54;8.60;;;7.07;;
7675;SDS011;3880;51.464;-2.566;2022-09-13T00:51:25;11.53;;;8.00;;
7675;SDS011;3880;51.464;-2.566;2022-09-13T00:53:53;8.53;;;7.53;;
7675;SDS011;3880;51.464;-2.566;2022-09-13T00:56:24;11.50;;;8.83;;
7675;SDS011;3880;51.464;-2.566;2022-09-13T00:58:56;10.80;;;8.37;;
7675;SDS011;3880;51.464;-2.566;2022-09-13T01:01:27;10.57;;;9.33;;
7675;SDS011;3880;51.464;-2.566;2022-09-13T01:03:58;10.43;;;9.43;;
7675;SDS011;3880;51.464;-2.566;2022-09-13T01:06:27;10.97;;;8.93;;
7675;SDS011;3880;51.464;-2.566;2022-09-13T01:08:57;11.57;;;10.33;;
7675;SDS011;3880;51.464;-2.566;2022-09-13T01:11:29;11.37;;;10.17;;
7675;SDS011;3880;51.464;-2.566;2022-09-13T01:14:07;14.43;;;9.80;;
7675;SDS011;3880;51.464;-2.566;2022-09-13T01:16:35;14.97;;;10.67;;
7675;SDS011;3880;51.464;-2.566;2022-09-13T01:19:02;16.40;;;10.73;;
7675;SDS011;3880;51.464;-2.566;2022-09-13T01:21:38;13.40;;;11.20;;
7675;SDS011;3880;51.464;-2.566;2022-09-13T01:27:27;15.20;;;10.93;;
7675;SDS011;3880;51.464;-2.566;2022-09-13T01:30:13;14.97;;;12.00;;
7675;SDS011;3880;51.464;-2.566;2022-09-13T01:32:51;14.57;;;12.63;;
7675;SDS011;3880;51.464;-2.566;2022-09-13T01:35:42;16.10;;;13.17;;
7675;SDS011;3880;51.464;-2.566;2022-09-13T01:38:25;17.67;;;14.30;;
7675;SDS011;3880;51.464;-2.566;2022-09-13T01:41:05;19.37;;;14.73;;
7675;SDS011;3880;51.464;-2.566;2022-09-13T01:43:47;20.27;;;14.77;;
7675;SDS011;3880;51.464;-2.566;2022-09-13T01:46:23;16.47;;;13.33;;
7675;SDS011;3880;51.464;-2.566;2022-09-13T01:48:57;17.83;;;13.23;;
7675;SDS011;3880;51.464;-2.566;2022-09-13T01:51:30;13.67;;;11.33;;
7675;SDS011;3880;51.464;-2.566;2022-09-13T01:54:05;14.43;;;10.10;;
7675;SDS011;3880;51.464;-2.566;2022-09-13T01:56:40;9.37;;;8.30;;
7675;SDS011;3880;51.464;-2.566;2022-09-13T01:59:15;8.73;;;7.93;;
7675;SDS011;3880;51.464;-2.566;2022-09-13T02:01:50;7.87;;;7.17;;
7675;SDS011;3880;51.464;-2.566;2022-09-13T02:04:26;9.13;;;6.73;;
7675;SDS011;3880;51.464;-2.566;2022-09-13T02:07:00;7.53;;;6.20;;
7675;SDS011;3880;51.464;-2.566;2022-09-13T02:09:30;8.13;;;6.30;;
7675;SDS011;3880;51.464;-2.566;2022-09-13T02:12:05;8.37;;;6.67;;
7675;SDS011;3880;51.464;-2.566;2022-09-13T02:14:36;7.13;;;6.50;;
7675;SDS011;3880;51.464;-2.566;2022-09-13T02:17:07;7.57;;;6.87;;
7675;SDS011;3880;51.464;-2.566;2022-09-13T02:19:38;8.70;;;7.07;;
7675;SDS011;3880;51.464;-2.566;2022-09-13T02:22:10;9.23;;;7.23;;
7675;SDS011;3880;51.464;-2.566;2022-09-13T02:24:41;8.10;;;7.30;;
7675;SDS011;3880;51.464;-2.566;2022-09-13T02:27:14;8.20;;;7.50;;
7675;SDS011;3880;51.464;-2.566;2022-09-13T02:29:45;10.80;;;7.67;;
7675;SDS011;3880;51.464;-2.566;2022-09-13T02:32:20;11.13;;;7.47;;
7675;SDS011;3880;51.464;-2.566;2022-09-13T02:34:50;9.10;;;8.00;;
7675;SDS011;3880;51.464;-2.566;2022-09-13T02:37:21;9.73;;;7.47;;
7675;SDS011;3880;51.464;-2.566;2022-09-13T02:39:51;10.83;;;8.43;;
7675;SDS011;3880;51.464;-2.566;2022-09-13T02:42:22;10.43;;;7.20;;
7675;SDS011;3880;51.464;-2.566;2022-09-13T02:44:56;8.77;;;7.13;;
7675;SDS011;3880;51.464;-2.566;2022-09-13T02:47:31;8.97;;;7.57;;
7675;SDS011;3880;51.464;-2.566;2022-09-13T02:50:12;11.47;;;7.40;;
7675;SDS011;3880;51.464;-2.566;2022-09-13T02:52:53;10.67;;;7.53;;
7675;SDS011;3880;51.464;-2.566;2022-09-13T02:55:29;9.13;;;7.13;;
7675;SDS011;3880;51.464;-2.566;2022-09-13T02:58:05;9.67;;;7.43;;
7675;SDS011;3880;51.464;-2.566;2022-09-13T03:00:37;10.93;;;7.40;;
7675;SDS011;3880;51.464;-2.566;2022-09-13T03:03:07;12.73;;;8.00;;
7675;SDS011;3880;51.464;-2.566;2022-09-13T03:05:37;12.83;;;6.93;;
7675;SDS011;3880;51.464;-2.566;2022-09-13T03:08:04;11.60;;;7.50;;
7675;SDS011;3880;51.464;-2.566;2022-09-13T03:10:36;9.73;;;7.43;;
7675;SDS011;3880;51.464;-2.566;2022-09-13T03:13:17;10.93;;;7.77;;
7675;SDS011;3880;51.464;-2.566;2022-09-13T03:16:04;9.37;;;7.67;;
7675;SDS011;3880;51.464;-2.566;2022-09-13T03:18:50;12.30;;;8.53;;
7675;SDS011;3880;51.464;-2.566;2022-09-13T03:21:31;11.00;;;8.60;;
7675;SDS011;3880;51.464;-2.566;2022-09-13T03:24:12;9.80;;;8.30;;
7675;SDS011;3880;51.464;-2.566;2022-09-13T03:26:50;12.30;;;8.30;;
7675;SDS011;3880;51.464;-2.566;2022-09-13T03:29:30;14.30;;;8.90;;
7675;SDS011;3880;51.464;-2.566;2022-09-13T03:32:07;11.53;;;8.93;;
7675;SDS011;3880;51.464;-2.566;2022-09-13T03:34:46;17.73;;;8.80;;
7675;SDS011;3880;51.464;-2.566;2022-09-13T03:37:21;12.70;;;8.53;;
7675;SDS011;3880;51.464;-2.566;2022-09-13T03:39:56;15.03;;;9.57;;
7675;SDS011;3880;51.464;-2.566;2022-09-13T03:42:30;14.57;;;9.80;;
7675;SDS011;3880;51.464;-2.566;2022-09-13T03:45:00;11.93;;;9.97;;
7675;SDS011;3880;51.464;-2.566;2022-09-13T03:47:30;14.20;;;9.67;;
7675;SDS011;3880;51.464;-2.566;2022-09-13T03:50:02;15.03;;;11.83;;
7675;SDS011;3880;51.464;-2.566;2022-09-13T03:52:32;18.50;;;9.80;;
7675;SDS011;3880;51.464;-2.566;2022-09-13T03:55:00;19.30;;;10.57;;
7675;SDS011;3880;51.464;-2.566;2022-09-13T03:57:27;13.17;;;9.77;;
7675;SDS011;3880;51.464;-2.566;2022-09-13T03:59:54;13.87;;;10.13;;
7675;SDS011;3880;51.464;-2.566;2022-09-13T04:02:23;15.57;;;8.93;;
7675;SDS011;3880;51.464;-2.566;2022-09-13T04:04:51;10.67;;;8.67;;
7675;SDS011;3880;51.464;-2.566;2022-09-13T04:07:20;12.10;;;8.77;;
7675;SDS011;3880;51.464;-2.566;2022-09-13T04:09:48;12.50;;;8.70;;
7675;SDS011;3880;51.464;-2.566;2022-09-13T04:12:15;9.90;;;8.23;;
7675;SDS011;3880;51.464;-2.566;2022-09-13T04:14:43;14.07;;;8.90;;
7675;SDS011;3880;51.464;-2.566;2022-09-13T04:17:10;11.43;;;8.23;;
7675;SDS011;3880;51.464;-2.566;2022-09-13T04:19:38;12.40;;;7.73;;
7675;SDS011;3880;51.464;-2.566;2022-09-13T04:22:05;14.90;;;8.63;;
7675;SDS011;3880;51.464;-2.566;2022-09-13T04:24:34;10.80;;;8.10;;
7675;SDS011;3880;51.464;-2.566;2022-09-13T04:27:01;14.97;;;8.30;;
7675;SDS011;3880;51.464;-2.566;2022-09-13T04:29:29;13.47;;;6.73;;
7675;SDS011;3880;51.464;-2.566;2022-09-13T04:31:57;9.90;;;7.17;;
7675;SDS011;3880;51.464;-2.566;2022-09-13T04:34:24;12.20;;;7.73;;
7675;SDS011;3880;51.464;-2.566;2022-09-13T04:36:52;12.70;;;6.20;;
7675;SDS011;3880;51.464;-2.566;2022-09-13T04:39:19;11.03;;;7.10;;
7675;SDS011;3880;51.464;-2.566;2022-09-13T04:41:49;11.23;;;6.10;;
7675;SDS011;3880;51.464;-2.566;2022-09-13T04:44:18;17.13;;;6.87;;
7675;SDS011;3880;51.464;-2.566;2022-09-13T04:46:47;9.47;;;6.10;;
7675;SDS011;3880;51.464;-2.566;2022-09-13T04:49:15;9.93;;;6.37;;
7675;SDS011;3880;51.464;-2.566;2022-09-13T04:51:44;9.40;;;5.13;;
7675;SDS011;3880;51.464;-2.566;2022-09-13T04:54:11;7.73;;;5.43;;
7675;SDS011;3880;51.464;-2.566;2022-09-13T04:56:39;10.37;;;5.33;;
7675;SDS011;3880;51.464;-2.566;2022-09-13T04:59:07;7.10;;;5.07;;
7675;SDS011;3880;51.464;-2.566;2022-09-13T05:01:35;12.43;;;6.23;;
7675;SDS011;3880;51.464;-2.566;2022-09-13T05:04:03;7.33;;;4.73;;
7675;SDS011;3880;51.464;-2.566;2022-09-13T05:06:31;13.53;;;5.13;;
7675;SDS011;3880;51.464;-2.566;2022-09-13T05:08:58;7.57;;;4.80;;
7675;SDS011;3880;51.464;-2.566;2022-09-13T05:11:25;10.67;;;4.80;;
7675;SDS011;3880;51.464;-2.566;2022-09-13T05:13:54;7.63;;;5.10;;
7675;SDS011;3880;51.464;-2.566;2022-09-13T05:16:24;9.67;;;4.53;;
7675;SDS011;3880;51.464;-2.566;2022-09-13T05:18:53;11.30;;;4.00;;
7675;SDS011;3880;51.464;-2.566;2022-09-13T05:21:20;7.37;;;3.83;;
7675;SDS011;3880;51.464;-2.566;2022-09-13T05:23:48;23.23;;;4.07;;
7675;SDS011;3880;51.464;-2.566;2022-09-13T05:26:15;6.57;;;3.20;;
7675;SDS011;3880;51.464;-2.566;2022-09-13T05:28:43;9.43;;;3.77;;
7675;SDS011;3880;51.464;-2.566;2022-09-13T05:31:12;8.33;;;3.63;;
7675;SDS011;3880;51.464;-2.566;2022-09-13T05:33:44;5.90;;;3.97;;
7675;SDS011;3880;51.464;-2.566;2022-09-13T05:36:13;12.90;;;3.70;;
7675;SDS011;3880;51.464;-2.566;2022-09-13T05:38:43;8.37;;;3.70;;
7675;SDS011;3880;51.464;-2.566;2022-09-13T05:41:10;8.47;;;3.83;;
7675;SDS011;3880;51.464;-2.566;2022-09-13T05:43:37;11.20;;;3.30;;
7675;SDS011;3880;51.464;-2.566;2022-09-13T05:46:05;10.13;;;3.50;;
7675;SDS011;3880;51.464;-2.566;2022-09-13T05:48:33;8.00;;;2.93;;
7675;SDS011;3880;51.464;-2.566;2022-09-13T05:51:06;8.60;;;2.80;;
7675;SDS011;3880;51.464;-2.566;2022-09-13T05:53:37;9.07;;;3.47;;
7675;SDS011;3880;51.464;-2.566;2022-09-13T05:56:06;11.00;;;3.20;;
7675;SDS011;3880;51.464;-2.566;2022-09-13T05:58:37;8.97;;;2.70;;
7675;SDS011;3880;51.464;-2.566;2022-09-13T06:01:04;9.20;;;3.27;;
7675;SDS011;3880;51.464;-2.566;2022-09-13T06:03:31;7.33;;;3.70;;
7675;SDS011;3880;51.464;-2.566;2022-09-13T06:05:59;14.63;;;3.97;;
7675;SDS011;3880;51.464;-2.566;2022-09-13T06:08:28;7.70;;;2.90;;
7675;SDS011;3880;51.464;-2.566;2022-09-13T06:10:56;7.60;;;3.10;;
7675;SDS011;3880;51.464;-2.566;2022-09-13T06:13:24;12.57;;;3.03;;
7675;SDS011;3880;51.464;-2.566;2022-09-13T06:15:53;7.90;;;2.50;;
7675;SDS011;3880;51.464;-2.566;2022-09-13T06:18:21;6.47;;;2.77;;
7675;SDS011;3880;51.464;-2.566;2022-09-13T06:20:48;14.57;;;3.20;;
7675;SDS011;3880;51.464;-2.566;2022-09-13T06:23:16;5.53;;;2.73;;
7675;SDS011;3880;51.464;-2.566;2022-09-13T06:25:44;12.70;;;4.00;;
7675;SDS011;3880;51.464;-2.566;2022-09-13T06:28:11;6.10;;;2.30;;
7675;SDS011;3880;51.464;-2.566;2022-09-13T06:30:38;10.87;;;2.63;;
7675;SDS011;3880;51.464;-2.566;2022-09-13T06:33:05;8.23;;;2.93;;
7675;SDS011;3880;51.464;-2.566;2022-09-13T06:35:32;8.37;;;2.23;;
7675;SDS011;3880;51.464;-2.566;2022-09-13T06:37:59;10.03;;;2.87;;
7675;SDS011;3880;51.464;-2.566;2022-09-13T06:40:26;9.53;;;2.77;;
7675;SDS011;3880;51.464;-2.566;2022-09-13T06:42:54;9.33;;;2.60;;
7675;SDS011;3880;51.464;-2.566;2022-09-13T06:45:21;12.77;;;3.13;;
7675;SDS011;3880;51.464;-2.566;2022-09-13T06:47:48;12.70;;;4.93;;
7675;SDS011;3880;51.464;-2.566;2022-09-13T06:50:18;7.93;;;1.90;;
7675;SDS011;3880;51.464;-2.566;2022-09-13T06:52:45;12.03;;;2.07;;
7675;SDS011;3880;51.464;-2.566;2022-09-13T06:55:15;7.93;;;2.50;;
7675;SDS011;3880;51.464;-2.566;2022-09-13T06:57:42;9.33;;;2.50;;
7675;SDS011;3880;51.464;-2.566;2022-09-13T07:00:13;7.77;;;2.43;;
7675;SDS011;3880;51.464;-2.566;2022-09-13T07:02:41;4.43;;;2.27;;
7675;SDS011;3880;51.464;-2.566;2022-09-13T07:05:15;6.17;;;2.30;;
7675;SDS011;3880;51.464;-2.566;2022-09-13T07:07:43;7.80;;;2.87;;
7675;SDS011;3880;51.464;-2.566;2022-09-13T07:10:09;10.27;;;2.10;;
7675;SDS011;3880;51.464;-2.566;2022-09-13T07:12:37;17.27;;;2.47;;
7675;SDS011;3880;51.464;-2.566;2022-09-13T07:15:06;8.13;;;2.97;;
7675;SDS011;3880;51.464;-2.566;2022-09-13T07:17:35;8.90;;;3.37;;
7675;SDS011;3880;51.464;-2.566;2022-09-13T07:20:02;11.43;;;2.37;;
7675;SDS011;3880;51.464;-2.566;2022-09-13T07:22:32;5.87;;;2.73;;
7675;SDS011;3880;51.464;-2.566;2022-09-13T07:24:59;11.03;;;2.60;;
7675;SDS011;3880;51.464;-2.566;2022-09-13T07:27:26;8.20;;;2.37;;
7675;SDS011;3880;51.464;-2.566;2022-09-13T07:29:53;8.37;;;2.73;;
7675;SDS011;3880;51.464;-2.566;2022-09-13T07:32:21;6.33;;;2.27;;
7675;SDS011;3880;51.464;-2.566;2022-09-13T07:34:50;9.63;;;2.50;;
7675;SDS011;3880;51.464;-2.566;2022-09-13T07:37:17;5.17;;;2.13;;
7675;SDS011;3880;51.464;-2.566;2022-09-13T07:39:44;10.57;;;3.10;;
7675;SDS011;3880;51.464;-2.566;2022-09-13T07:42:11;10.43;;;2.23;;
7675;SDS011;3880;51.464;-2.566;2022-09-13T07:44:38;8.07;;;2.43;;
7675;SDS011;3880;51.464;-2.566;2022-09-13T07:47:05;6.47;;;2.33;;
7675;SDS011;3880;51.464;-2.566;2022-09-13T07:49:32;5.50;;;1.67;;
7675;SDS011;3880;51.464;-2.566;2022-09-13T07:52:00;6.97;;;2.50;;
7675;SDS011;3880;51.464;-2.566;2022-09-13T07:54:27;12.23;;;2.57;;
7675;SDS011;3880;51.464;-2.566;2022-09-13T07:56:55;7.13;;;2.10;;
7675;SDS011;3880;51.464;-2.566;2022-09-13T07:59:22;4.37;;;1.80;;
7675;SDS011;3880;51.464;-2.566;2022-09-13T08:01:49;3.40;;;1.73;;
7675;SDS011;3880;51.464;-2.566;2022-09-13T08:04:17;8.37;;;1.80;;
7675;SDS011;3880;51.464;-2.566;2022-09-13T08:06:45;3.60;;;1.67;;
7675;SDS011;3880;51.464;-2.566;2022-09-13T08:09:14;9.27;;;2.30;;
7675;SDS011;3880;51.464;-2.566;2022-09-13T08:11:46;8.27;;;2.33;;
7675;SDS011;3880;51.464;-2.566;2022-09-13T08:14:16;6.80;;;1.97;;
7675;SDS011;3880;51.464;-2.566;2022-09-13T08:16:44;3.43;;;1.90;;
7675;SDS011;3880;51.464;-2.566;2022-09-13T08:19:12;5.47;;;2.33;;
7675;SDS011;3880;51.464;-2.566;2022-09-13T08:21:40;8.10;;;2.57;;
7675;SDS011;3880;51.464;-2.566;2022-09-13T08:24:12;7.10;;;2.70;;
7675;SDS011;3880;51.464;-2.566;2022-09-13T08:26:42;17.20;;;2.77;;
7675;SDS011;3880;51.464;-2.566;2022-09-13T08:29:10;10.40;;;2.37;;
7675;SDS011;3880;51.464;-2.566;2022-09-13T08:31:38;7.33;;;2.43;;
7675;SDS011;3880;51.464;-2.566;2022-09-13T08:34:06;10.77;;;2.20;;
7675;SDS011;3880;51.464;-2.566;2022-09-13T08:36:35;3.23;;;1.50;;
7675;SDS011;3880;51.464;-2.566;2022-09-13T08:39:02;4.40;;;1.87;;
7675;SDS011;3880;51.464;-2.566;2022-09-13T08:41:37;8.03;;;2.50;;
7675;SDS011;3880;51.464;-2.566;2022-09-13T08:44:29;5.23;;;1.77;;
7675;SDS011;3880;51.464;-2.566;2022-09-13T08:47:01;6.97;;;2.53;;
7675;SDS011;3880;51.464;-2.566;2022-09-13T08:49:38;6.67;;;2.30;;
7675;SDS011;3880;51.464;-2.566;2022-09-13T08:52:18;12.40;;;2.67;;
7675;SDS011;3880;51.464;-2.566;2022-09-13T08:54:53;9.00;;;1.97;;
7675;SDS011;3880;51.464;-2.566;2022-09-13T08:57:24;5.83;;;2.00;;
7675;SDS011;3880;51.464;-2.566;2022-09-13T08:59:58;7.97;;;2.10;;
7675;SDS011;3880;51.464;-2.566;2022-09-13T09:02:42;3.77;;;1.63;;
7675;SDS011;3880;51.464;-2.566;2022-09-13T09:05:20;6.60;;;2.50;;
7675;SDS011;3880;51.464;-2.566;2022-09-13T09:07:50;6.73;;;2.37;;
7675;SDS011;3880;51.464;-2.566;2022-09-13T09:10:21;9.00;;;2.17;;
7675;SDS011;3880;51.464;-2.566;2022-09-13T09:12:53;8.07;;;2.30;;
7675;SDS011;3880;51.464;-2.566;2022-09-13T09:15:22;8.00;;;1.83;;
7675;SDS011;3880;51.464;-2.566;2022-09-13T09:17:53;10.30;;;2.20;;
7675;SDS011;3880;51.464;-2.566;2022-09-13T09:20:25;5.60;;;1.90;;
7675;SDS011;3880;51.464;-2.566;2022-09-13T09:22:57;9.93;;;2.30;;
7675;SDS011;3880;51.464;-2.566;2022-09-13T09:25:28;9.83;;;1.83;;
7675;SDS011;3880;51.464;-2.566;2022-09-13T09:27:58;5.57;;;2.10;;
7675;SDS011;3880;51.464;-2.566;2022-09-13T09:30:26;4.83;;;2.27;;
7675;SDS011;3880;51.464;-2.566;2022-09-13T09:33:04;8.00;;;2.57;;
7675;SDS011;3880;51.464;-2.566;2022-09-13T09:35:44;5.33;;;2.23;;
7675;SDS011;3880;51.464;-2.566;2022-09-13T09:38:28;5.67;;;2.27;;
7675;SDS011;3880;51.464;-2.566;2022-09-13T09:40:59;6.23;;;1.97;;
7675;SDS011;3880;51.464;-2.566;2022-09-13T09:43:32;9.80;;;2.20;;
7675;SDS011;3880;51.464;-2.566;2022-09-13T09:46:04;5.70;;;1.80;;
7675;SDS011;3880;51.464;-2.566;2022-09-13T09:48:36;4.13;;;2.07;;
7675;SDS011;3880;51.464;-2.566;2022-09-13T09:51:06;8.00;;;2.37;;
7675;SDS011;3880;51.464;-2.566;2022-09-13T09:53:36;7.60;;;2.33;;
7675;SDS011;3880;51.464;-2.566;2022-09-13T09:56:14;5.30;;;1.87;;
7675;SDS011;3880;51.464;-2.566;2022-09-13T09:58:51;6.23;;;1.43;;
7675;SDS011;3880;51.464;-2.566;2022-09-13T10:01:23;5.07;;;1.67;;
7675;SDS011;3880;51.464;-2.566;2022-09-13T10:03:53;5.63;;;1.70;;
7675;SDS011;3880;51.464;-2.566;2022-09-13T10:06:28;4.07;;;1.90;;
7675;SDS011;3880;51.464;-2.566;2022-09-13T10:08:57;4.33;;;2.10;;
7675;SDS011;3880;51.464;-2.566;2022-09-13T10:14:35;5.70;;;1.80;;
7675;SDS011;3880;51.464;-2.566;2022-09-13T10:17:05;4.77;;;1.60;;
7675;SDS011;3880;51.464;-2.566;2022-09-13T10:19:49;6.87;;;1.97;;
7675;SDS011;3880;51.464;-2.566;2022-09-13T10:22:18;9.33;;;2.73;;
7675;SDS011;3880;51.464;-2.566;2022-09-13T10:24:46;5.57;;;1.57;;
7675;SDS011;3880;51.464;-2.566;2022-09-13T10:27:17;8.73;;;2.17;;
7675;SDS011;3880;51.464;-2.566;2022-09-13T10:29:54;6.50;;;2.27;;
7675;SDS011;3880;51.464;-2.566;2022-09-13T10:32:24;5.73;;;2.20;;
7675;SDS011;3880;51.464;-2.566;2022-09-13T10:34:51;7.17;;;2.93;;
7675;SDS011;3880;51.464;-2.566;2022-09-13T10:37:21;4.80;;;1.80;;
7675;SDS011;3880;51.464;-2.566;2022-09-13T10:39:55;8.60;;;2.17;;
7675;SDS011;3880;51.464;-2.566;2022-09-13T10:42:27;4.80;;;2.00;;
7675;SDS011;3880;51.464;-2.566;2022-09-13T10:44:57;10.50;;;2.03;;
7675;SDS011;3880;51.464;-2.566;2022-09-13T10:47:27;12.83;;;2.67;;
7675;SDS011;3880;51.464;-2.566;2022-09-13T10:50:10;10.60;;;2.13;;
7675;SDS011;3880;51.464;-2.566;2022-09-13T10:52:44;6.57;;;2.40;;
7675;SDS011;3880;51.464;-2.566;2022-09-13T10:58:12;8.90;;;2.20;;
7675;SDS011;3880;51.464;-2.566;2022-09-13T11:00:57;9.13;;;2.53;;
7675;SDS011;3880;51.464;-2.566;2022-09-13T11:06:45;6.77;;;2.97;;
7675;SDS011;3880;51.464;-2.566;2022-09-13T11:09:17;8.20;;;3.40;;
7675;SDS011;3880;51.464;-2.566;2022-09-13T11:11:49;8.63;;;3.40;;
7675;SDS011;3880;51.464;-2.566;2022-09-13T11:14:30;6.03;;;2.93;;
7675;SDS011;3880;51.464;-2.566;2022-09-13T11:17:14;7.73;;;2.77;;
7675;SDS011;3880;51.464;-2.566;2022-09-13T11:19:57;8.23;;;2.30;;
7675;SDS011;3880;51.464;-2.566;2022-09-13T11:22:39;12.33;;;3.17;;
7675;SDS011;3880;51.464;-2.566;2022-09-13T11:25:47;8.97;;;3.37;;
7675;SDS011;3880;51.464;-2.566;2022-09-13T11:28:24;7.57;;;2.87;;
7675;SDS011;3880;51.464;-2.566;2022-09-13T11:31:03;7.60;;;2.67;;
7675;SDS011;3880;51.464;-2.566;2022-09-13T11:33:49;7.93;;;1.90;;
7675;SDS011;3880;51.464;-2.566;2022-09-13T11:36:33;3.90;;;2.10;;
7675;SDS011;3880;51.464;-2.566;2022-09-13T11:39:29;6.33;;;3.10;;
7675;SDS011;3880;51.464;-2.566;2022-09-13T11:42:03;12.00;;;2.80;;
7675;SDS011;3880;51.464;-2.566;2022-09-13T11:44:50;5.43;;;2.20;;
7675;SDS011;3880;51.464;-2.566;2022-09-13T11:47:44;4.13;;;2.10;;
7675;SDS011;3880;51.464;-2.566;2022-09-13T11:50:26;5.37;;;2.87;;
7675;SDS011;3880;51.464;-2.566;2022-09-13T11:53:01;5.90;;;2.77;;
7675;SDS011;3880;51.464;-2.566;2022-09-13T11:55:40;6.07;;;2.87;;
7675;SDS011;3880;51.464;-2.566;2022-09-13T11:58:12;7.50;;;2.87;;
7675;SDS011;3880;51.464;-2.566;2022-09-13T12:00:45;5.77;;;3.20;;
7675;SDS011;3880;51.464;-2.566;2022-09-13T12:03:16;7.17;;;3.03;;
7675;SDS011;3880;51.464;-2.566;2022-09-13T12:05:53;9.57;;;2.83;;
7675;SDS011;3880;51.464;-2.566;2022-09-13T12:08:23;7.53;;;2.30;;
7675;SDS011;3880;51.464;-2.566;2022-09-13T12:10:54;3.50;;;2.50;;
7675;SDS011;3880;51.464;-2.566;2022-09-13T12:13:24;4.77;;;2.83;;
7675;SDS011;3880;51.464;-2.566;2022-09-13T12:15:54;6.37;;;3.30;;
7675;SDS011;3880;51.464;-2.566;2022-09-13T12:18:27;7.27;;;2.63;;
7675;SDS011;3880;51.464;-2.566;2022-09-13T12:21:02;5.33;;;2.30;;
7675;SDS011;3880;51.464;-2.566;2022-09-13T12:23:35;7.73;;;3.87;;
7675;SDS011;3880;51.464;-2.566;2022-09-13T12:26:08;7.33;;;2.50;;
7675;SDS011;3880;51.464;-2.566;2022-09-13T12:28:42;6.30;;;2.40;;
7675;SDS011;3880;51.464;-2.566;2022-09-13T12:31:14;5.77;;;2.43;;
7675;SDS011;3880;51.464;-2.566;2022-09-13T12:33:45;3.63;;;2.20;;
7675;SDS011;3880;51.464;-2.566;2022-09-13T12:36:25;4.27;;;2.10;;
7675;SDS011;3880;51.464;-2.566;2022-09-13T12:45:08;4.27;;;2.30;;
7675;SDS011;3880;51.464;-2.566;2022-09-13T12:47:51;3.77;;;2.07;;
7675;SDS011;3880;51.464;-2.566;2022-09-13T12:53:28;4.90;;;2.20;;
7675;SDS011;3880;51.464;-2.566;2022-09-13T12:56:23;4.53;;;2.27;;
7675;SDS011;3880;51.464;-2.566;2022-09-13T12:59:15;5.90;;;2.67;;
7675;SDS011;3880;51.464;-2.566;2022-09-13T13:02:18;4.93;;;2.10;;
7675;SDS011;3880;51.464;-2.566;2022-09-13T13:04:52;3.27;;;2.27;;
7675;SDS011;3880;51.464;-2.566;2022-09-13T13:07:23;5.33;;;2.40;;
7675;SDS011;3880;51.464;-2.566;2022-09-13T13:09:52;7.27;;;2.67;;
7675;SDS011;3880;51.464;-2.566;2022-09-13T13:12:25;10.00;;;2.20;;
7675;SDS011;3880;51.464;-2.566;2022-09-13T13:14:56;6.23;;;2.20;;
7675;SDS011;3880;51.464;-2.566;2022-09-13T13:23:13;4.73;;;2.33;;
7675;SDS011;3880;51.464;-2.566;2022-09-13T13:25:55;4.30;;;2.07;;
7675;SDS011;3880;51.464;-2.566;2022-09-13T13:28:51;2.90;;;1.80;;
7675;SDS011;3880;51.464;-2.566;2022-09-13T13:32:08;7.00;;;2.57;;
7675;SDS011;3880;51.464;-2.566;2022-09-13T13:34:38;2.33;;;1.80;;
7675;SDS011;3880;51.464;-2.566;2022-09-13T13:37:27;9.30;;;2.67;;
7675;SDS011;3880;51.464;-2.566;2022-09-13T13:40:09;7.03;;;2.63;;
7675;SDS011;3880;51.464;-2.566;2022-09-13T13:42:49;3.80;;;2.00;;
7675;SDS011;3880;51.464;-2.566;2022-09-13T13:45:20;4.80;;;2.23;;
7675;SDS011;3880;51.464;-2.566;2022-09-13T13:47:55;3.87;;;2.00;;
7675;SDS011;3880;51.464;-2.566;2022-09-13T13:50:33;3.70;;;2.00;;
7675;SDS011;3880;51.464;-2.566;2022-09-13T13:53:13;4.53;;;2.37;;
7675;SDS011;3880;51.464;-2.566;2022-09-13T13:55:47;9.20;;;2.50;;
7675;SDS011;3880;51.464;-2.566;2022-09-13T13:58:36;3.60;;;2.23;;
7675;SDS011;3880;51.464;-2.566;2022-09-13T14:01:13;3.73;;;2.43;;
7675;SDS011;3880;51.464;-2.566;2022-09-13T14:03:58;6.10;;;2.00;;
7675;SDS011;3880;51.464;-2.566;2022-09-13T14:06:51;4.70;;;2.40;;
7675;SDS011;3880;51.464;-2.566;2022-09-13T14:09:29;4.60;;;2.27;;
7675;SDS011;3880;51.464;-2.566;2022-09-13T14:12:13;4.67;;;1.90;;
7675;SDS011;3880;51.464;-2.566;2022-09-13T14:15:00;4.73;;;2.97;;
7675;SDS011;3880;51.464;-2.566;2022-09-13T14:17:52;6.00;;;2.20;;
7675;SDS011;3880;51.464;-2.566;2022-09-13T14:20:56;4.60;;;2.43;;
7675;SDS011;3880;51.464;-2.566;2022-09-13T14:23:24;6.53;;;2.10;;
7675;SDS011;3880;51.464;-2.566;2022-09-13T14:25:54;4.53;;;2.23;;
7675;SDS011;3880;51.464;-2.566;2022-09-13T14:28:24;5.07;;;2.20;;
7675;SDS011;3880;51.464;-2.566;2022-09-13T14:30:54;4.07;;;2.80;;
7675;SDS011;3880;51.464;-2.566;2022-09-13T14:33:24;7.13;;;2.80;;
7675;SDS011;3880;51.464;-2.566;2022-09-13T14:35:59;6.50;;;2.47;;
7675;SDS011;3880;51.464;-2.566;2022-09-13T14:38:29;9.47;;;2.53;;
7675;SDS011;3880;51.464;-2.566;2022-09-13T14:41:00;7.43;;;2.50;;
7675;SDS011;3880;51.464;-2.566;2022-09-13T14:43:37;2.87;;;2.67;;
7675;SDS011;3880;51.464;-2.566;2022-09-13T14:46:06;4.50;;;2.77;;
7675;SDS011;3880;51.464;-2.566;2022-09-13T14:48:38;5.27;;;2.60;;
7675;SDS011;3880;51.464;-2.566;2022-09-13T14:51:13;5.07;;;2.70;;
7675;SDS011;3880;51.464;-2.566;2022-09-13T14:53:44;5.57;;;2.77;;
7675;SDS011;3880;51.464;-2.566;2022-09-13T14:56:15;5.10;;;3.30;;
7675;SDS011;3880;51.464;-2.566;2022-09-13T14:58:48;4.43;;;2.57;;
7675;SDS011;3880;51.464;-2.566;2022-09-13T15:01:20;5.17;;;2.50;;
7675;SDS011;3880;51.464;-2.566;2022-09-13T15:03:54;6.13;;;2.80;;
7675;SDS011;3880;51.464;-2.566;2022-09-13T15:06:23;4.13;;;2.47;;
7675;SDS011;3880;51.464;-2.566;2022-09-13T15:08:54;7.53;;;2.90;;
7675;SDS011;3880;51.464;-2.566;2022-09-13T15:11:28;4.23;;;3.13;;
7675;SDS011;3880;51.464;-2.566;2022-09-13T15:14:00;6.57;;;3.40;;
7675;SDS011;3880;51.464;-2.566;2022-09-13T15:16:46;10.83;;;4.97;;
7675;SDS011;3880;51.464;-2.566;2022-09-13T15:19:15;9.97;;;4.23;;
7675;SDS011;3880;51.464;-2.566;2022-09-13T15:21:53;6.53;;;3.70;;
7675;SDS011;3880;51.464;-2.566;2022-09-13T15:24:29;7.03;;;4.10;;
7675;SDS011;3880;51.464;-2.566;2022-09-13T15:27:01;7.67;;;3.40;;
7675;SDS011;3880;51.464;-2.566;2022-09-13T15:29:30;5.67;;;3.50;;
7675;SDS011;3880;51.464;-2.566;2022-09-13T15:32:00;4.33;;;2.60;;
7675;SDS011;3880;51.464;-2.566;2022-09-13T15:34:28;6.37;;;2.80;;
7675;SDS011;3880;51.464;-2.566;2022-09-13T15:37:07;5.50;;;3.10;;
7675;SDS011;3880;51.464;-2.566;2022-09-13T15:39:42;7.77;;;2.90;;
7675;SDS011;3880;51.464;-2.566;2022-09-13T15:42:13;11.20;;;3.27;;
7675;SDS011;3880;51.464;-2.566;2022-09-13T15:44:41;8.23;;;2.93;;
7675;SDS011;3880;51.464;-2.566;2022-09-13T15:47:14;6.37;;;3.27;;
7675;SDS011;3880;51.464;-2.566;2022-09-13T15:49:46;6.13;;;3.07;;
7675;SDS011;3880;51.464;-2.566;2022-09-13T15:52:15;6.83;;;3.00;;
7675;SDS011;3880;51.464;-2.566;2022-09-13T15:54:46;5.13;;;2.60;;
7675;SDS011;3880;51.464;-2.566;2022-09-13T15:57:16;5.03;;;2.87;;
7675;SDS011;3880;51.464;-2.566;2022-09-13T15:59:46;4.13;;;3.20;;